createdAt,value
2023-02-14T00:00:01.545Z,-2.06
2023-02-14T00:02:49.539Z,-1.97
2023-02-14T00:05:36.182Z,-2.09
2023-02-14T00:08:22.443Z,-2.28
2023-02-14T00:11:09.036Z,-1.97
2023-02-14T00:14:14.846Z,-2.11
2023-02-14T00:17:01.475Z,-2.43
2023-02-14T00:19:47.880Z,-2.58
2023-02-14T00:22:34.061Z,-2.35
2023-02-14T00:25:20.566Z,-2.37
2023-02-14T00:28:06.967Z,-2.47
2023-02-14T00:30:53.370Z,-2.33
2023-02-14T00:33:41.385Z,-2.30
2023-02-14T00:36:27.987Z,-2.22
2023-02-14T00:39:15.594Z,-2.27
2023-02-14T00:42:02.144Z,-2.36
2023-02-14T00:44:48.371Z,-2.33
2023-02-14T00:47:34.619Z,-2.42
2023-02-14T00:50:20.856Z,-2.54
2023-02-14T00:53:07.147Z,-2.23
2023-02-14T00:55:53.593Z,-2.32
2023-02-14T00:58:40.893Z,-2.52
2023-02-14T01:01:27.288Z,-2.28
2023-02-14T01:04:13.956Z,-2.62
2023-02-14T01:07:00.098Z,-3.13
2023-02-14T01:09:46.473Z,-2.70
2023-02-14T01:12:32.982Z,-2.62
2023-02-14T01:15:20.602Z,-2.52
2023-02-14T01:18:07.044Z,-2.28
2023-02-14T01:20:53.606Z,-2.23
2023-02-14T01:23:41.094Z,-2.58
2023-02-14T01:39:08.051Z,-2.89
2023-02-14T01:41:56.023Z,-2.78
2023-02-14T01:44:45.350Z,-2.80
2023-02-14T01:47:36.818Z,-2.77
2023-02-14T01:50:36.429Z,-2.85
2023-02-14T01:53:28.438Z,-2.97
2023-02-14T01:56:23.991Z,-2.95
2023-02-14T01:59:14.530Z,-2.98
2023-02-14T02:02:03.361Z,-3.02
2023-02-14T02:04:53.334Z,-3.11
2023-02-14T02:07:40.621Z,-3.11
2023-02-14T02:10:26.875Z,-3.08
2023-02-14T02:13:18.903Z,-3.08
2023-02-14T02:16:29.212Z,-3.12
2023-02-14T02:19:22.162Z,-3.12
2023-02-14T02:22:25.438Z,-3.17
2023-02-14T02:25:30.648Z,-3.12
2023-02-14T02:28:58.537Z,-2.98
2023-02-14T02:32:07.988Z,-2.98
2023-02-14T02:35:31.612Z,-3.17
2023-02-14T02:38:36.199Z,-3.19
2023-02-14T02:41:40.653Z,-3.14
2023-02-14T02:44:44.704Z,-3.19
2023-02-14T02:47:53.182Z,-3.28
2023-02-14T02:51:02.587Z,-3.53
2023-02-14T02:54:16.402Z,-3.60
2023-02-14T02:57:07.629Z,-3.83
2023-02-14T02:59:55.924Z,-3.84
2023-02-14T03:03:10.066Z,-3.45
2023-02-14T03:05:57.805Z,-3.68
2023-02-14T03:08:44.372Z,-3.36
2023-02-14T03:11:31.432Z,-3.42
2023-02-14T03:14:26.262Z,-3.22
2023-02-14T03:17:48.681Z,-3.17
2023-02-14T03:21:03.235Z,-3.16
2023-02-14T03:24:09.602Z,-3.68
2023-02-14T03:27:30.245Z,-3.30
2023-02-14T03:30:28.650Z,-3.22
2023-02-14T03:33:21.887Z,-3.13
2023-02-14T03:36:28.219Z,-2.99
2023-02-14T03:39:30.592Z,-2.86
2023-02-14T03:42:26.321Z,-2.89
2023-02-14T03:45:20.611Z,-2.79
2023-02-14T03:48:10.616Z,-2.93
2023-02-14T03:50:59.430Z,-2.75
2023-02-14T03:53:49.984Z,-3.04
2023-02-14T03:56:47.988Z,-3.07
2023-02-14T03:59:35.470Z,-3.15
2023-02-14T04:02:25.384Z,-2.86
2023-02-14T04:05:27.151Z,-2.87
2023-02-14T04:08:24.011Z,-3.01
2023-02-14T04:11:10.441Z,-3.05
2023-02-14T04:13:56.605Z,-2.90
2023-02-14T04:17:01.723Z,-3.66
2023-02-14T04:19:47.995Z,-3.41
2023-02-14T04:22:34.419Z,-3.53
2023-02-14T04:25:22.035Z,-3.50
2023-02-14T04:28:08.443Z,-3.59
2023-02-14T04:30:54.939Z,-3.74
2023-02-14T04:33:41.386Z,-4.02
2023-02-14T04:36:27.639Z,-3.84
2023-02-14T04:39:14.112Z,-3.87
2023-02-14T04:42:00.351Z,-3.91
2023-02-14T04:44:46.710Z,-4.10
2023-02-14T04:47:32.958Z,-3.79
2023-02-14T04:50:19.316Z,-3.90
2023-02-14T04:53:05.481Z,-3.86
2023-02-14T04:55:51.982Z,-3.96
2023-02-14T04:58:38.583Z,-4.08
2023-02-14T05:01:25.019Z,-4.02
2023-02-14T05:04:11.605Z,-4.20
2023-02-14T05:06:57.880Z,-3.98
2023-02-14T05:09:44.263Z,-4.17
2023-02-14T05:12:30.780Z,-3.88
2023-02-14T05:15:17.172Z,-3.86
2023-02-14T05:18:05.651Z,-3.78
2023-02-14T05:20:54.299Z,-3.76
2023-02-14T05:23:41.090Z,-3.80
2023-02-14T05:26:28.310Z,-3.56
2023-02-14T05:29:14.787Z,-4.00
2023-02-14T05:32:00.874Z,-3.64
2023-02-14T05:34:47.427Z,-3.86
2023-02-14T05:37:33.558Z,-4.08
2023-02-14T05:40:19.922Z,-4.01
2023-02-14T05:43:06.811Z,-3.76
2023-02-14T05:45:54.444Z,-3.87
2023-02-14T05:48:40.829Z,-4.05
2023-02-14T05:51:27.182Z,-3.73
2023-02-14T05:54:13.723Z,-4.05
2023-02-14T05:56:59.993Z,-4.08
2023-02-14T05:59:46.436Z,-3.86
2023-02-14T06:02:33.011Z,-3.94
2023-02-14T06:05:20.170Z,-3.87
2023-02-14T06:08:06.523Z,-4.01
2023-02-14T06:10:52.763Z,-3.93
2023-02-14T06:13:41.372Z,-3.63
2023-02-14T06:16:28.023Z,-4.01
2023-02-14T06:19:14.585Z,-3.61
2023-02-14T06:22:01.500Z,-3.85
2023-02-14T06:24:48.064Z,-3.80
2023-02-14T06:27:34.347Z,-3.51
2023-02-14T06:30:20.424Z,-3.69
2023-02-14T06:33:06.883Z,-3.46
2023-02-14T06:35:54.241Z,-3.82
2023-02-14T06:38:41.307Z,-3.40
2023-02-14T06:41:28.115Z,-3.35
2023-02-14T06:44:14.504Z,-3.43
2023-02-14T06:47:01.036Z,-3.59
2023-02-14T06:49:47.622Z,-3.65
2023-02-14T06:52:34.184Z,-3.63
2023-02-14T06:55:20.299Z,-3.55
2023-02-14T06:58:06.563Z,-3.65
2023-02-14T07:00:55.341Z,-3.78
2023-02-14T07:03:42.166Z,-3.83
2023-02-14T07:06:28.876Z,-3.41
2023-02-14T07:09:17.738Z,-3.29
2023-02-14T07:12:04.356Z,-3.10
2023-02-14T07:14:50.714Z,-2.88
2023-02-14T07:17:37.825Z,-3.21
2023-02-14T07:20:24.787Z,-3.00
2023-02-14T07:23:11.433Z,-2.91
2023-02-14T07:25:57.793Z,-2.84
2023-02-14T07:28:51.725Z,-2.88
2023-02-14T07:31:38.297Z,-2.50
2023-02-14T07:34:24.725Z,-2.59
2023-02-14T07:37:11.242Z,-2.64
2023-02-14T07:39:57.761Z,-2.58
2023-02-14T07:42:44.128Z,-2.47
2023-02-14T07:45:30.409Z,-2.33
2023-02-14T07:48:16.580Z,-2.50
2023-02-14T07:51:03.578Z,-2.55
2023-02-14T07:53:50.208Z,-2.19
2023-02-14T07:56:36.368Z,-2.14
2023-02-14T07:59:24.436Z,-2.00
2023-02-14T08:02:12.837Z,-2.07
2023-02-14T08:04:59.224Z,-1.75
2023-02-14T08:07:48.449Z,-1.67
2023-02-14T08:10:34.991Z,-1.60
2023-02-14T08:13:21.679Z,-1.46
2023-02-14T08:16:09.709Z,-1.36
2023-02-14T08:18:56.442Z,-1.24
2023-02-14T08:21:42.744Z,-0.95
2023-02-14T08:24:29.108Z,-1.12
2023-02-14T08:27:15.428Z,-1.15
2023-02-14T08:30:01.717Z,-1.02
2023-02-14T08:32:47.927Z,-0.71
2023-02-14T08:35:35.252Z,-0.56
2023-02-14T08:38:21.816Z,-0.51
2023-02-14T08:41:09.242Z,-0.47
2023-02-14T08:43:56.280Z,-0.25
2023-02-14T08:46:42.668Z,-0.16
2023-02-14T08:49:28.992Z,-0.04
2023-02-14T08:52:15.629Z,-0.18
2023-02-14T08:55:02.882Z,0.16
2023-02-14T08:57:49.355Z,0.19
2023-02-14T09:00:35.778Z,0.43
2023-02-14T09:03:22.149Z,0.16
2023-02-14T09:06:12.124Z,0.43
2023-02-14T09:09:00.325Z,0.36
2023-02-14T09:11:47.821Z,0.39
2023-02-14T09:14:46.020Z,0.87
2023-02-14T09:17:32.643Z,0.93
2023-02-14T09:20:19.231Z,0.95
2023-02-14T09:23:05.752Z,0.95
2023-02-14T09:25:52.393Z,1.05
2023-02-14T09:28:39.741Z,1.10
2023-02-14T09:31:26.237Z,1.13
2023-02-14T09:34:31.528Z,1.23
2023-02-14T09:37:36.711Z,1.37
2023-02-14T09:40:24.014Z,1.12
2023-02-14T09:43:23.758Z,1.17
2023-02-14T09:46:15.532Z,1.50
2023-02-14T09:49:03.034Z,1.78
2023-02-14T09:51:53.152Z,1.80
2023-02-14T09:54:43.675Z,1.60
2023-02-14T09:57:48.272Z,1.91
2023-02-14T10:00:40.611Z,2.03
2023-02-14T10:03:50.679Z,2.02
2023-02-14T10:06:48.091Z,2.10
2023-02-14T10:09:43.668Z,2.27
2023-02-14T10:12:36.406Z,2.01
2023-02-14T10:15:30.933Z,2.26
2023-02-14T10:18:46.643Z,2.56
2023-02-14T10:21:48.120Z,2.69
2023-02-14T10:24:45.931Z,2.66
2023-02-14T10:27:34.047Z,2.88
2023-02-14T10:30:23.020Z,2.78
2023-02-14T10:33:17.657Z,2.88
2023-02-14T10:36:14.868Z,3.08
2023-02-14T10:39:26.254Z,3.35
2023-02-14T10:42:38.546Z,3.27
2023-02-14T10:45:41.834Z,3.27
2023-02-14T10:48:57.459Z,3.27
2023-02-14T10:52:02.549Z,3.34
2023-02-14T10:55:01.888Z,3.67
2023-02-14T10:57:53.521Z,3.58
2023-02-14T11:00:50.139Z,3.60
2023-02-14T11:03:39.461Z,3.71
2023-02-14T11:06:25.778Z,3.46
2023-02-14T11:09:12.388Z,3.62
2023-02-14T11:12:00.095Z,3.60
2023-02-14T11:14:46.662Z,3.35
2023-02-14T11:17:34.162Z,3.74
2023-02-14T11:20:22.957Z,3.90
2023-02-14T11:23:21.372Z,3.89
2023-02-14T11:26:25.036Z,3.62
2023-02-14T11:29:15.938Z,3.70
2023-02-14T11:32:26.432Z,3.70
2023-02-14T11:35:24.144Z,3.57
2023-02-14T11:38:28.259Z,3.70
2023-02-14T11:41:16.860Z,4.19
2023-02-14T11:44:14.612Z,4.28
2023-02-14T11:47:29.265Z,4.39
2023-02-14T11:50:24.726Z,4.53
2023-02-14T11:53:13.170Z,4.65
2023-02-14T11:56:00.708Z,4.55
2023-02-14T11:58:56.383Z,4.41
2023-02-14T12:01:46.471Z,4.38
2023-02-14T12:04:46.151Z,4.60
2023-02-14T12:07:38.397Z,4.53
2023-02-14T12:10:36.268Z,4.94
2023-02-14T12:13:25.939Z,5.00
2023-02-14T12:16:21.304Z,5.07
2023-02-14T12:19:17.245Z,5.16
2023-02-14T12:22:06.245Z,4.90
2023-02-14T12:25:15.671Z,5.42
2023-02-14T12:28:12.213Z,5.42
2023-02-14T12:30:59.268Z,5.77
2023-02-14T12:33:47.539Z,5.87
2023-02-14T12:36:53.425Z,5.91
2023-02-14T12:40:04.894Z,6.00
2023-02-14T12:43:10.416Z,6.15
2023-02-14T12:46:19.088Z,6.21
2023-02-14T12:49:34.715Z,6.49
2023-02-14T12:52:46.444Z,6.67
2023-02-14T12:56:02.436Z,6.81
2023-02-14T12:59:20.637Z,7.07
2023-02-14T13:02:35.003Z,7.17
2023-02-14T13:05:49.962Z,7.40
2023-02-14T13:09:01.347Z,7.63
2023-02-14T13:11:53.025Z,7.56
2023-02-14T13:15:04.478Z,7.60
2023-02-14T13:17:58.365Z,7.47
2023-02-14T13:20:58.341Z,7.71
2023-02-14T13:23:48.344Z,7.78
2023-02-14T13:26:39.527Z,7.96
2023-02-14T13:29:43.793Z,7.78
2023-02-14T13:32:40.513Z,7.97
2023-02-14T13:35:29.323Z,8.17
2023-02-14T13:38:18.291Z,7.95
2023-02-14T13:41:07.388Z,7.93
2023-02-14T13:44:01.469Z,8.30
2023-02-14T13:46:50.871Z,8.38
2023-02-14T13:49:40.400Z,8.28
2023-02-14T13:52:47.978Z,8.08
2023-02-14T13:55:42.904Z,8.08
2023-02-14T13:58:29.828Z,8.21
2023-02-14T14:01:48.069Z,8.32
2023-02-14T14:04:35.873Z,8.52
2023-02-14T14:07:30.798Z,8.24
2023-02-14T14:10:46.905Z,8.02
2023-02-14T14:13:42.411Z,7.92
2023-02-14T14:16:35.106Z,7.62
2023-02-14T14:19:21.785Z,7.63
2023-02-14T14:22:11.968Z,7.38
2023-02-14T14:25:05.194Z,7.16
2023-02-14T14:27:51.576Z,7.19
2023-02-14T14:30:44.432Z,7.14
2023-02-14T14:33:33.835Z,7.40
2023-02-14T14:36:23.438Z,6.96
2023-02-14T14:39:10.658Z,7.13
2023-02-14T14:42:07.051Z,7.01
2023-02-14T14:45:01.774Z,7.18
2023-02-14T14:47:49.065Z,7.19
2023-02-14T14:50:36.594Z,7.00
2023-02-14T14:53:28.355Z,6.90
2023-02-14T14:56:21.014Z,6.85
2023-02-14T14:59:17.090Z,7.08
2023-02-14T15:02:20.385Z,7.13
2023-02-14T15:05:28.391Z,6.94
2023-02-14T15:08:32.852Z,6.85
2023-02-14T15:11:43.325Z,6.60
2023-02-14T15:14:34.405Z,6.73
2023-02-14T15:17:31.343Z,6.73
2023-02-14T15:20:21.960Z,6.40
2023-02-14T15:23:18.031Z,6.51
2023-02-14T15:26:05.270Z,6.75
2023-02-14T15:29:22.869Z,6.66
2023-02-14T15:32:11.021Z,6.49
2023-02-14T15:34:59.354Z,6.42
2023-02-14T15:37:46.775Z,6.22
2023-02-14T15:40:34.764Z,6.05
2023-02-14T15:43:33.790Z,5.95
2023-02-14T15:46:27.144Z,6.08
2023-02-14T15:49:21.232Z,6.27
2023-02-14T15:52:07.861Z,6.07
2023-02-14T15:54:54.066Z,5.90
2023-02-14T15:57:44.188Z,5.91
2023-02-14T16:00:31.756Z,5.72
2023-02-14T16:03:25.101Z,5.89
2023-02-14T16:06:39.788Z,5.66
2023-02-14T16:09:28.616Z,5.58
2023-02-14T16:12:31.482Z,5.44
2023-02-14T16:15:21.995Z,5.45
2023-02-14T16:18:42.047Z,5.11
2023-02-14T16:21:33.792Z,5.00
2023-02-14T16:24:20.334Z,4.88
2023-02-14T16:27:11.995Z,4.58
2023-02-14T16:29:59.151Z,4.60
2023-02-14T16:32:53.662Z,4.66
2023-02-14T16:35:40.062Z,4.56
2023-02-14T16:38:26.174Z,4.26
2023-02-14T16:41:18.123Z,4.21
2023-02-14T16:44:04.723Z,3.85
2023-02-14T16:46:51.296Z,3.79
2023-02-14T16:49:37.832Z,3.45
2023-02-14T16:52:28.256Z,3.23
2023-02-14T16:55:16.878Z,3.35
2023-02-14T16:58:03.495Z,3.25
2023-02-14T17:00:49.715Z,2.95
2023-02-14T17:03:36.401Z,2.97
2023-02-14T17:06:31.402Z,2.71
2023-02-14T17:09:21.566Z,2.55
2023-02-14T17:12:16.060Z,2.62
2023-02-14T17:15:07.966Z,2.38
2023-02-14T17:18:00.032Z,2.57
2023-02-14T17:20:46.795Z,2.26
2023-02-14T17:23:33.108Z,2.13
2023-02-14T17:26:19.922Z,2.20
2023-02-14T17:29:06.851Z,1.98
2023-02-14T17:31:53.609Z,1.73
2023-02-14T17:34:40.872Z,1.84
2023-02-14T17:37:27.155Z,1.77
2023-02-14T17:40:14.979Z,1.41
2023-02-14T17:43:01.445Z,1.39
2023-02-14T17:45:47.644Z,1.10
2023-02-14T17:48:33.992Z,1.14
2023-02-14T17:51:21.582Z,1.23
2023-02-14T17:54:08.279Z,0.88
2023-02-14T17:56:54.617Z,1.00
2023-02-14T17:59:42.317Z,0.80
2023-02-14T18:02:28.814Z,0.80
2023-02-14T18:05:16.869Z,0.70
2023-02-14T18:08:03.448Z,0.70
2023-02-14T18:10:49.604Z,0.61
2023-02-14T18:13:37.500Z,0.67
2023-02-14T18:16:24.875Z,0.62
2023-02-14T18:19:15.588Z,0.34
2023-02-14T18:22:01.756Z,0.31
2023-02-14T18:24:48.296Z,0.27
2023-02-14T18:27:34.377Z,0.42
2023-02-14T18:30:20.743Z,0.34
2023-02-14T18:33:07.036Z,0.13
2023-02-14T18:35:53.362Z,0.20
2023-02-14T18:38:41.366Z,0.20
2023-02-14T18:41:28.033Z,-0.03
2023-02-14T18:44:14.796Z,0.07
2023-02-14T18:47:02.581Z,-0.29
2023-02-14T18:49:48.766Z,-0.09
2023-02-14T18:52:36.618Z,-0.23
2023-02-14T18:55:22.897Z,-0.40
2023-02-14T18:58:09.557Z,-0.57
2023-02-14T19:00:56.502Z,-0.56
2023-02-14T19:03:43.512Z,-0.38
2023-02-14T19:06:30.989Z,-0.43
2023-02-14T19:09:18.626Z,-0.47
2023-02-14T19:12:08.466Z,-0.64
2023-02-14T19:14:55.587Z,-0.82
2023-02-14T19:17:41.873Z,-0.67
2023-02-14T19:20:28.266Z,-0.76
2023-02-14T19:23:14.504Z,-0.71
2023-02-14T19:26:09.518Z,-0.86
2023-02-14T19:28:58.567Z,-0.70
2023-02-14T19:31:48.410Z,-0.75
2023-02-14T19:34:35.029Z,-1.11
2023-02-14T19:37:21.215Z,-1.06
2023-02-14T19:40:10.193Z,-1.34
2023-02-14T19:42:56.961Z,-1.13
2023-02-14T19:45:43.678Z,-1.07
2023-02-14T19:48:29.966Z,-1.14
2023-02-14T19:51:30.792Z,-1.19
2023-02-14T19:54:17.709Z,-1.17
2023-02-14T19:57:03.865Z,-1.39
2023-02-14T19:59:50.465Z,-1.34
2023-02-14T20:02:37.095Z,-1.88
2023-02-14T20:05:23.513Z,-1.33
2023-02-14T20:08:09.904Z,-1.74
2023-02-14T20:10:56.295Z,-1.67
2023-02-14T20:13:42.711Z,-1.52
2023-02-14T20:16:31.465Z,-1.49
2023-02-14T20:19:20.141Z,-1.68
2023-02-14T20:22:08.123Z,-1.92
2023-02-14T20:24:54.586Z,-1.73
2023-02-14T20:27:40.822Z,-1.68
2023-02-14T20:30:27.385Z,-1.86
2023-02-14T20:33:14.138Z,-1.83
2023-02-14T20:36:01.850Z,-1.94
2023-02-14T20:38:47.926Z,-1.81
2023-02-14T20:41:35.141Z,-2.06
2023-02-14T20:44:21.960Z,-1.92
2023-02-14T20:47:10.823Z,-1.97
2023-02-14T20:49:57.377Z,-2.12
2023-02-14T20:52:43.666Z,-2.14
2023-02-14T20:55:31.207Z,-2.24
2023-02-14T20:58:17.955Z,-2.19
2023-02-14T21:01:09.050Z,-2.27
2023-02-14T21:03:55.723Z,-2.10
2023-02-14T21:06:42.178Z,-2.23
2023-02-14T21:09:28.531Z,-2.15
2023-02-14T21:12:15.028Z,-2.29
2023-02-14T21:15:01.547Z,-2.32
2023-02-14T21:17:47.905Z,-2.28
2023-02-14T21:20:34.578Z,-2.52
2023-02-14T21:23:20.970Z,-2.22
2023-02-14T21:26:07.476Z,-2.42
2023-02-14T21:28:53.774Z,-2.51
2023-02-14T21:31:40.082Z,-2.60
2023-02-14T21:34:27.816Z,-2.69
2023-02-14T21:37:14.273Z,-2.53
2023-02-14T21:40:00.499Z,-2.56
2023-02-14T21:42:46.903Z,-2.44
2023-02-14T21:45:52.358Z,-2.53
2023-02-14T21:48:57.751Z,-2.58
2023-02-14T21:51:44.748Z,-2.78
2023-02-14T21:54:30.999Z,-2.69
2023-02-14T21:57:17.207Z,-2.77
2023-02-14T22:00:05.470Z,-2.55
2023-02-14T22:02:56.889Z,-2.81
2023-02-14T22:05:43.308Z,-2.60
2023-02-14T22:08:30.314Z,-2.40
2023-02-14T22:11:17.315Z,-2.11
2023-02-14T22:14:04.023Z,-1.86
2023-02-14T22:16:50.510Z,-1.93
2023-02-14T22:19:39.375Z,-1.91
2023-02-14T22:22:25.564Z,-2.09
2023-02-14T22:25:15.203Z,-2.27
2023-02-14T22:28:04.314Z,-2.35
2023-02-14T22:30:50.827Z,-2.62
2023-02-14T22:33:37.992Z,-2.42
2023-02-14T22:36:24.685Z,-2.58
2023-02-14T22:39:16.600Z,-2.25
2023-02-14T22:42:08.599Z,-2.56
2023-02-14T22:44:54.872Z,-2.76
2023-02-14T22:47:41.263Z,-2.92
2023-02-14T22:50:30.427Z,-2.71
2023-02-14T22:53:16.909Z,-2.78
2023-02-14T22:56:18.236Z,-2.70
2023-02-14T22:59:07.408Z,-2.40
2023-02-14T23:01:54.259Z,-2.25
2023-02-14T23:04:40.607Z,-2.44
2023-02-14T23:07:26.806Z,-2.32
2023-02-14T23:10:13.199Z,-2.32
2023-02-14T23:13:17.949Z,-2.41
2023-02-14T23:16:22.818Z,-2.38
2023-02-14T23:19:33.656Z,-2.54
2023-02-14T23:22:25.709Z,-2.53
2023-02-14T23:25:12.808Z,-2.26
2023-02-14T23:27:59.118Z,-2.52
2023-02-14T23:30:45.480Z,-2.43
2023-02-14T23:33:31.631Z,-2.35
2023-02-14T23:36:18.160Z,-2.38
2023-02-14T23:39:04.495Z,-2.16
2023-02-14T23:41:50.923Z,-2.33
2023-02-14T23:44:37.942Z,-2.49
2023-02-14T23:47:24.652Z,-2.44
2023-02-14T23:50:10.899Z,-2.46
2023-02-14T23:52:57.219Z,-2.19
2023-02-14T23:55:43.670Z,-2.29
2023-02-14T23:58:29.821Z,-1.95
